sensor_id;sensor_type;location;lat;lon;timestamp;P1;durP1;ratioP1;P2;durP2;ratioP2
75426;SDS011;64007;50.632;13.700;2024-02-28T00:01:49;16.67;;;7.30;;
75426;SDS011;64007;50.632;13.700;2024-02-28T00:04:18;22.67;;;6.55;;
75426;SDS011;64007;50.632;13.700;2024-02-28T00:06:44;25.48;;;7.65;;
75426;SDS011;64007;50.632;13.700;2024-02-28T00:09:11;20.23;;;8.18;;
75426;SDS011;64007;50.632;13.700;2024-02-28T00:11:44;17.50;;;7.40;;
75426;SDS011;64007;50.632;13.700;2024-02-28T00:25:19;23.35;;;6.80;;
75426;SDS011;64007;50.632;13.700;2024-02-28T00:27:45;20.67;;;6.20;;
75426;SDS011;64007;50.632;13.700;2024-02-28T00:30:11;16.52;;;5.95;;
75426;SDS011;64007;50.632;13.700;2024-02-28T00:32:37;18.52;;;6.95;;
75426;SDS011;64007;50.632;13.700;2024-02-28T00:35:03;18.35;;;6.78;;
75426;SDS011;64007;50.632;13.700;2024-02-28T00:37:29;14.40;;;6.38;;
75426;SDS011;64007;50.632;13.700;2024-02-28T00:39:55;17.92;;;6.38;;
75426;SDS011;64007;50.632;13.700;2024-02-28T00:42:21;13.00;;;5.38;;
75426;SDS011;64007;50.632;13.700;2024-02-28T00:44:47;13.50;;;6.00;;
75426;SDS011;64007;50.632;13.700;2024-02-28T00:47:12;14.55;;;5.50;;
75426;SDS011;64007;50.632;13.700;2024-02-28T00:49:38;24.20;;;5.78;;
75426;SDS011;64007;50.632;13.700;2024-02-28T00:52:04;16.88;;;5.85;;
75426;SDS011;64007;50.632;13.700;2024-02-28T00:54:30;15.70;;;5.30;;
75426;SDS011;64007;50.632;13.700;2024-02-28T00:56:56;34.28;;;6.47;;
75426;SDS011;64007;50.632;13.700;2024-02-28T00:59:21;12.70;;;5.60;;
75426;SDS011;64007;50.632;13.700;2024-02-28T01:01:48;12.38;;;5.38;;
75426;SDS011;64007;50.632;13.700;2024-02-28T01:04:14;20.98;;;6.40;;
75426;SDS011;64007;50.632;13.700;2024-02-28T01:06:39;21.00;;;5.88;;
75426;SDS011;64007;50.632;13.700;2024-02-28T01:09:05;17.45;;;5.53;;
75426;SDS011;64007;50.632;13.700;2024-02-28T01:11:31;14.65;;;5.30;;
75426;SDS011;64007;50.632;13.700;2024-02-28T01:13:57;10.27;;;4.60;;
75426;SDS011;64007;50.632;13.700;2024-02-28T01:16:22;17.65;;;5.53;;
75426;SDS011;64007;50.632;13.700;2024-02-28T01:18:48;20.17;;;5.68;;
75426;SDS011;64007;50.632;13.700;2024-02-28T01:21:14;17.50;;;5.32;;
75426;SDS011;64007;50.632;13.700;2024-02-28T01:23:40;17.92;;;6.30;;
75426;SDS011;64007;50.632;13.700;2024-02-28T01:26:05;16.23;;;5.28;;
75426;SDS011;64007;50.632;13.700;2024-02-28T01:28:31;17.70;;;5.55;;
75426;SDS011;64007;50.632;13.700;2024-02-28T01:30:57;12.95;;;5.40;;
75426;SDS011;64007;50.632;13.700;2024-02-28T01:33:23;13.82;;;4.82;;
75426;SDS011;64007;50.632;13.700;2024-02-28T01:35:49;15.27;;;4.93;;
75426;SDS011;64007;50.632;13.700;2024-02-28T01:38:15;14.63;;;6.22;;
75426;SDS011;64007;50.632;13.700;2024-02-28T01:40:46;22.95;;;5.32;;
75426;SDS011;64007;50.632;13.700;2024-02-28T01:43:12;22.77;;;5.93;;
75426;SDS011;64007;50.632;13.700;2024-02-28T01:45:38;15.10;;;5.90;;
75426;SDS011;64007;50.632;13.700;2024-02-28T01:48:06;28.17;;;5.80;;
75426;SDS011;64007;50.632;13.700;2024-02-28T01:50:35;18.25;;;5.85;;
75426;SDS011;64007;50.632;13.700;2024-02-28T01:53:02;23.83;;;5.18;;
75426;SDS011;64007;50.632;13.700;2024-02-28T01:55:29;13.23;;;4.70;;
75426;SDS011;64007;50.632;13.700;2024-02-28T01:57:55;16.67;;;5.50;;
75426;SDS011;64007;50.632;13.700;2024-02-28T02:00:21;13.43;;;5.68;;
75426;SDS011;64007;50.632;13.700;2024-02-28T02:02:49;12.63;;;4.40;;
75426;SDS011;64007;50.632;13.700;2024-02-28T02:05:14;22.63;;;4.90;;
75426;SDS011;64007;50.632;13.700;2024-02-28T02:07:42;11.68;;;4.68;;
75426;SDS011;64007;50.632;13.700;2024-02-28T02:10:08;13.85;;;4.85;;
75426;SDS011;64007;50.632;13.700;2024-02-28T02:12:37;11.25;;;4.97;;
75426;SDS011;64007;50.632;13.700;2024-02-28T02:15:03;15.10;;;5.45;;
75426;SDS011;64007;50.632;13.700;2024-02-28T02:17:29;10.05;;;5.18;;
75426;SDS011;64007;50.632;13.700;2024-02-28T02:19:55;15.10;;;4.90;;
75426;SDS011;64007;50.632;13.700;2024-02-28T02:22:21;11.50;;;4.43;;
75426;SDS011;64007;50.632;13.700;2024-02-28T02:24:48;12.52;;;4.85;;
75426;SDS011;64007;50.632;13.700;2024-02-28T02:27:14;13.43;;;5.40;;
75426;SDS011;64007;50.632;13.700;2024-02-28T02:29:39;15.43;;;4.45;;
75426;SDS011;64007;50.632;13.700;2024-02-28T02:32:05;12.85;;;4.35;;
75426;SDS011;64007;50.632;13.700;2024-02-28T02:34:31;11.25;;;4.15;;
75426;SDS011;64007;50.632;13.700;2024-02-28T02:36:57;13.15;;;4.63;;
75426;SDS011;64007;50.632;13.700;2024-02-28T02:39:23;13.05;;;4.20;;
75426;SDS011;64007;50.632;13.700;2024-02-28T02:41:49;15.23;;;4.40;;
75426;SDS011;64007;50.632;13.700;2024-02-28T02:44:14;16.83;;;4.25;;
75426;SDS011;64007;50.632;13.700;2024-02-28T02:46:40;14.60;;;4.55;;
75426;SDS011;64007;50.632;13.700;2024-02-28T02:49:05;14.63;;;4.18;;
75426;SDS011;64007;50.632;13.700;2024-02-28T02:51:31;14.05;;;4.50;;
75426;SDS011;64007;50.632;13.700;2024-02-28T02:53:57;10.10;;;4.60;;
75426;SDS011;64007;50.632;13.700;2024-02-28T02:56:23;11.23;;;3.90;;
75426;SDS011;64007;50.632;13.700;2024-02-28T02:58:48;18.13;;;4.50;;
75426;SDS011;64007;50.632;13.700;2024-02-28T03:01:14;11.30;;;4.07;;
75426;SDS011;64007;50.632;13.700;2024-02-28T03:03:40;13.80;;;4.70;;
75426;SDS011;64007;50.632;13.700;2024-02-28T03:06:06;13.75;;;4.40;;
75426;SDS011;64007;50.632;13.700;2024-02-28T03:08:31;11.35;;;4.53;;
75426;SDS011;64007;50.632;13.700;2024-02-28T03:10:57;11.18;;;3.88;;
75426;SDS011;64007;50.632;13.700;2024-02-28T03:13:23;13.60;;;3.95;;
75426;SDS011;64007;50.632;13.700;2024-02-28T03:15:49;9.10;;;4.20;;
75426;SDS011;64007;50.632;13.700;2024-02-28T03:18:15;12.63;;;3.90;;
75426;SDS011;64007;50.632;13.700;2024-02-28T03:20:40;7.93;;;3.67;;
75426;SDS011;64007;50.632;13.700;2024-02-28T03:23:06;8.30;;;4.18;;
75426;SDS011;64007;50.632;13.700;2024-02-28T03:25:32;6.15;;;3.05;;
75426;SDS011;64007;50.632;13.700;2024-02-28T03:27:59;5.47;;;3.47;;
75426;SDS011;64007;50.632;13.700;2024-02-28T03:30:26;8.18;;;3.88;;
75426;SDS011;64007;50.632;13.700;2024-02-28T03:32:52;9.70;;;3.90;;
75426;SDS011;64007;50.632;13.700;2024-02-28T03:35:18;7.78;;;4.03;;
75426;SDS011;64007;50.632;13.700;2024-02-28T03:37:43;11.25;;;3.95;;
75426;SDS011;64007;50.632;13.700;2024-02-28T03:40:09;11.68;;;3.70;;
75426;SDS011;64007;50.632;13.700;2024-02-28T03:42:35;6.80;;;3.95;;
75426;SDS011;64007;50.632;13.700;2024-02-28T03:45:01;9.27;;;4.00;;
75426;SDS011;64007;50.632;13.700;2024-02-28T03:47:27;8.27;;;3.90;;
75426;SDS011;64007;50.632;13.700;2024-02-28T03:49:53;9.13;;;3.97;;
75426;SDS011;64007;50.632;13.700;2024-02-28T03:52:22;8.40;;;4.13;;
75426;SDS011;64007;50.632;13.700;2024-02-28T03:54:48;10.57;;;3.75;;
75426;SDS011;64007;50.632;13.700;2024-02-28T03:57:14;9.57;;;3.67;;
75426;SDS011;64007;50.632;13.700;2024-02-28T03:59:40;8.85;;;3.78;;
75426;SDS011;64007;50.632;13.700;2024-02-28T04:02:06;8.18;;;3.53;;
75426;SDS011;64007;50.632;13.700;2024-02-28T04:04:32;5.93;;;3.60;;
75426;SDS011;64007;50.632;13.700;2024-02-28T04:06:57;6.63;;;3.10;;
75426;SDS011;64007;50.632;13.700;2024-02-28T04:09:23;10.93;;;3.72;;
75426;SDS011;64007;50.632;13.700;2024-02-28T04:11:49;6.40;;;3.50;;
75426;SDS011;64007;50.632;13.700;2024-02-28T04:14:15;9.35;;;3.40;;
75426;SDS011;64007;50.632;13.700;2024-02-28T04:16:41;5.88;;;3.30;;
75426;SDS011;64007;50.632;13.700;2024-02-28T04:19:10;6.10;;;3.13;;
75426;SDS011;64007;50.632;13.700;2024-02-28T04:21:36;6.50;;;3.40;;
75426;SDS011;64007;50.632;13.700;2024-02-28T04:24:02;7.43;;;3.63;;
75426;SDS011;64007;50.632;13.700;2024-02-28T04:26:28;6.47;;;3.10;;
75426;SDS011;64007;50.632;13.700;2024-02-28T04:28:55;5.30;;;3.25;;
75426;SDS011;64007;50.632;13.700;2024-02-28T04:31:21;8.68;;;3.72;;
75426;SDS011;64007;50.632;13.700;2024-02-28T04:33:47;11.85;;;3.38;;
75426;SDS011;64007;50.632;13.700;2024-02-28T04:36:12;6.07;;;3.58;;
75426;SDS011;64007;50.632;13.700;2024-02-28T04:38:38;7.00;;;2.90;;
75426;SDS011;64007;50.632;13.700;2024-02-28T04:41:04;7.70;;;3.28;;
75426;SDS011;64007;50.632;13.700;2024-02-28T04:43:30;9.27;;;3.53;;
75426;SDS011;64007;50.632;13.700;2024-02-28T04:45:55;10.30;;;5.30;;
75426;SDS011;64007;50.632;13.700;2024-02-28T04:48:21;13.43;;;5.28;;
75426;SDS011;64007;50.632;13.700;2024-02-28T04:50:46;17.50;;;4.78;;
75426;SDS011;64007;50.632;13.700;2024-02-28T04:53:12;7.28;;;4.60;;
75426;SDS011;64007;50.632;13.700;2024-02-28T04:55:38;7.53;;;3.80;;
75426;SDS011;64007;50.632;13.700;2024-02-28T04:58:04;11.82;;;3.88;;
75426;SDS011;64007;50.632;13.700;2024-02-28T05:00:29;9.90;;;4.22;;
75426;SDS011;64007;50.632;13.700;2024-02-28T05:02:55;8.85;;;3.83;;
75426;SDS011;64007;50.632;13.700;2024-02-28T05:05:21;6.35;;;3.63;;
75426;SDS011;64007;50.632;13.700;2024-02-28T05:07:46;8.63;;;4.45;;
75426;SDS011;64007;50.632;13.700;2024-02-28T05:10:12;5.22;;;3.20;;
75426;SDS011;64007;50.632;13.700;2024-02-28T05:12:38;7.60;;;3.35;;
75426;SDS011;64007;50.632;13.700;2024-02-28T05:15:03;9.20;;;3.28;;
75426;SDS011;64007;50.632;13.700;2024-02-28T05:17:32;6.72;;;3.63;;
75426;SDS011;64007;50.632;13.700;2024-02-28T05:19:57;6.03;;;3.55;;
75426;SDS011;64007;50.632;13.700;2024-02-28T05:22:23;14.13;;;5.00;;
75426;SDS011;64007;50.632;13.700;2024-02-28T05:24:49;11.35;;;4.38;;
75426;SDS011;64007;50.632;13.700;2024-02-28T05:27:15;25.20;;;4.95;;
75426;SDS011;64007;50.632;13.700;2024-02-28T05:29:40;14.18;;;5.00;;
75426;SDS011;64007;50.632;13.700;2024-02-28T05:32:07;10.52;;;4.75;;
75426;SDS011;64007;50.632;13.700;2024-02-28T05:34:34;9.13;;;4.28;;
75426;SDS011;64007;50.632;13.700;2024-02-28T05:37:00;13.98;;;4.40;;
75426;SDS011;64007;50.632;13.700;2024-02-28T05:39:26;8.77;;;3.85;;
75426;SDS011;64007;50.632;13.700;2024-02-28T05:41:56;20.38;;;4.55;;
75426;SDS011;64007;50.632;13.700;2024-02-28T05:44:22;18.83;;;4.50;;
75426;SDS011;64007;50.632;13.700;2024-02-28T05:46:50;12.88;;;4.45;;
75426;SDS011;64007;50.632;13.700;2024-02-28T05:49:15;12.02;;;5.07;;
75426;SDS011;64007;50.632;13.700;2024-02-28T05:51:41;14.25;;;4.47;;
75426;SDS011;64007;50.632;13.700;2024-02-28T05:54:07;17.92;;;4.57;;
75426;SDS011;64007;50.632;13.700;2024-02-28T05:56:32;11.57;;;4.65;;
75426;SDS011;64007;50.632;13.700;2024-02-28T05:58:58;14.63;;;4.38;;
75426;SDS011;64007;50.632;13.700;2024-02-28T06:01:24;11.60;;;4.70;;
75426;SDS011;64007;50.632;13.700;2024-02-28T06:03:49;8.00;;;4.30;;
75426;SDS011;64007;50.632;13.700;2024-02-28T06:06:16;10.70;;;4.45;;
75426;SDS011;64007;50.632;13.700;2024-02-28T06:08:42;10.43;;;4.22;;
75426;SDS011;64007;50.632;13.700;2024-02-28T06:11:09;14.57;;;5.82;;
75426;SDS011;64007;50.632;13.700;2024-02-28T06:13:35;14.57;;;4.72;;
75426;SDS011;64007;50.632;13.700;2024-02-28T06:16:01;10.95;;;4.88;;
75426;SDS011;64007;50.632;13.700;2024-02-28T06:18:27;10.40;;;5.18;;
75426;SDS011;64007;50.632;13.700;2024-02-28T06:20:53;17.73;;;4.93;;
75426;SDS011;64007;50.632;13.700;2024-02-28T06:23:20;11.45;;;4.88;;
75426;SDS011;64007;50.632;13.700;2024-02-28T06:25:49;12.65;;;4.85;;
75426;SDS011;64007;50.632;13.700;2024-02-28T06:28:14;11.23;;;5.07;;
75426;SDS011;64007;50.632;13.700;2024-02-28T06:30:41;11.85;;;4.85;;
75426;SDS011;64007;50.632;13.700;2024-02-28T06:33:08;10.50;;;4.82;;
75426;SDS011;64007;50.632;13.700;2024-02-28T06:35:34;11.63;;;4.80;;
75426;SDS011;64007;50.632;13.700;2024-02-28T06:38:00;11.48;;;4.90;;
75426;SDS011;64007;50.632;13.700;2024-02-28T06:40:26;9.40;;;4.97;;
75426;SDS011;64007;50.632;13.700;2024-02-28T06:42:51;15.77;;;5.88;;
75426;SDS011;64007;50.632;13.700;2024-02-28T06:45:17;18.77;;;6.00;;
75426;SDS011;64007;50.632;13.700;2024-02-28T06:47:43;11.52;;;6.18;;
75426;SDS011;64007;50.632;13.700;2024-02-28T06:50:10;12.73;;;6.18;;
75426;SDS011;64007;50.632;13.700;2024-02-28T06:52:36;12.07;;;6.60;;
75426;SDS011;64007;50.632;13.700;2024-02-28T06:55:02;17.80;;;7.05;;
75426;SDS011;64007;50.632;13.700;2024-02-28T06:57:39;19.75;;;6.43;;
75426;SDS011;64007;50.632;13.700;2024-02-28T07:00:06;22.55;;;7.47;;
75426;SDS011;64007;50.632;13.700;2024-02-28T07:02:44;14.70;;;6.95;;
75426;SDS011;64007;50.632;13.700;2024-02-28T07:05:10;27.80;;;7.10;;
75426;SDS011;64007;50.632;13.700;2024-02-28T07:07:36;17.25;;;6.57;;
75426;SDS011;64007;50.632;13.700;2024-02-28T07:10:02;17.05;;;6.22;;
75426;SDS011;64007;50.632;13.700;2024-02-28T07:12:29;15.45;;;6.22;;
75426;SDS011;64007;50.632;13.700;2024-02-28T07:14:55;12.35;;;4.88;;
75426;SDS011;64007;50.632;13.700;2024-02-28T07:17:21;15.02;;;5.57;;
75426;SDS011;64007;50.632;13.700;2024-02-28T07:19:54;9.98;;;5.32;;
75426;SDS011;64007;50.632;13.700;2024-02-28T07:25:01;20.80;;;6.10;;
75426;SDS011;64007;50.632;13.700;2024-02-28T07:27:29;25.23;;;7.95;;
75426;SDS011;64007;50.632;13.700;2024-02-28T07:29:55;20.48;;;7.35;;
75426;SDS011;64007;50.632;13.700;2024-02-28T07:32:21;28.23;;;8.60;;
75426;SDS011;64007;50.632;13.700;2024-02-28T07:34:46;17.38;;;6.70;;
75426;SDS011;64007;50.632;13.700;2024-02-28T07:37:12;19.33;;;6.15;;
75426;SDS011;64007;50.632;13.700;2024-02-28T07:39:40;9.40;;;5.00;;
75426;SDS011;64007;50.632;13.700;2024-02-28T07:42:06;19.20;;;5.30;;
75426;SDS011;64007;50.632;13.700;2024-02-28T07:44:31;15.07;;;5.13;;
75426;SDS011;64007;50.632;13.700;2024-02-28T07:55:21;8.77;;;4.75;;
75426;SDS011;64007;50.632;13.700;2024-02-28T07:57:51;11.85;;;4.32;;
75426;SDS011;64007;50.632;13.700;2024-02-28T08:00:44;13.55;;;5.05;;
75426;SDS011;64007;50.632;13.700;2024-02-28T08:03:28;14.40;;;4.70;;
75426;SDS011;64007;50.632;13.700;2024-02-28T08:06:18;19.50;;;4.75;;
75426;SDS011;64007;50.632;13.700;2024-02-28T08:08:44;8.68;;;4.75;;
75426;SDS011;64007;50.632;13.700;2024-02-28T08:11:12;14.40;;;4.78;;
75426;SDS011;64007;50.632;13.700;2024-02-28T08:13:39;12.15;;;4.28;;
75426;SDS011;64007;50.632;13.700;2024-02-28T08:16:04;10.95;;;4.82;;
75426;SDS011;64007;50.632;13.700;2024-02-28T08:18:32;11.93;;;4.75;;
75426;SDS011;64007;50.632;13.700;2024-02-28T08:20:59;12.98;;;4.68;;
75426;SDS011;64007;50.632;13.700;2024-02-28T08:23:27;8.48;;;4.35;;
75426;SDS011;64007;50.632;13.700;2024-02-28T08:25:53;7.82;;;4.47;;
75426;SDS011;64007;50.632;13.700;2024-02-28T08:28:19;13.10;;;4.55;;
75426;SDS011;64007;50.632;13.700;2024-02-28T08:30:45;6.45;;;3.83;;
75426;SDS011;64007;50.632;13.700;2024-02-28T08:33:11;12.68;;;4.00;;
75426;SDS011;64007;50.632;13.700;2024-02-28T08:35:36;10.10;;;4.50;;
75426;SDS011;64007;50.632;13.700;2024-02-28T08:38:02;13.60;;;4.68;;
75426;SDS011;64007;50.632;13.700;2024-02-28T08:40:31;9.25;;;4.00;;
75426;SDS011;64007;50.632;13.700;2024-02-28T08:42:57;14.27;;;4.72;;
75426;SDS011;64007;50.632;13.700;2024-02-28T08:45:23;8.50;;;4.25;;
75426;SDS011;64007;50.632;13.700;2024-02-28T08:47:48;7.90;;;4.00;;
75426;SDS011;64007;50.632;13.700;2024-02-28T08:50:14;19.35;;;4.95;;
75426;SDS011;64007;50.632;13.700;2024-02-28T08:52:40;12.73;;;4.65;;
75426;SDS011;64007;50.632;13.700;2024-02-28T08:55:06;13.35;;;4.15;;
75426;SDS011;64007;50.632;13.700;2024-02-28T08:57:31;7.85;;;3.88;;
75426;SDS011;64007;50.632;13.700;2024-02-28T08:59:57;6.70;;;3.22;;
75426;SDS011;64007;50.632;13.700;2024-02-28T09:02:23;7.32;;;3.72;;
75426;SDS011;64007;50.632;13.700;2024-02-28T09:04:48;12.65;;;3.70;;
75426;SDS011;64007;50.632;13.700;2024-02-28T09:07:17;4.90;;;3.45;;
75426;SDS011;64007;50.632;13.700;2024-02-28T09:09:45;5.78;;;3.47;;
75426;SDS011;64007;50.632;13.700;2024-02-28T09:12:11;6.05;;;3.60;;
75426;SDS011;64007;50.632;13.700;2024-02-28T09:14:37;11.07;;;3.45;;
75426;SDS011;64007;50.632;13.700;2024-02-28T09:17:04;7.55;;;3.63;;
75426;SDS011;64007;50.632;13.700;2024-02-28T09:19:30;4.85;;;2.47;;
75426;SDS011;64007;50.632;13.700;2024-02-28T09:21:56;4.25;;;2.28;;
75426;SDS011;64007;50.632;13.700;2024-02-28T09:24:25;5.78;;;2.75;;
75426;SDS011;64007;50.632;13.700;2024-02-28T09:26:51;3.92;;;2.17;;
75426;SDS011;64007;50.632;13.700;2024-02-28T09:29:17;9.73;;;2.40;;
75426;SDS011;64007;50.632;13.700;2024-02-28T09:31:43;4.60;;;2.08;;
75426;SDS011;64007;50.632;13.700;2024-02-28T09:34:08;3.28;;;1.90;;
75426;SDS011;64007;50.632;13.700;2024-02-28T09:36:41;8.10;;;1.75;;
75426;SDS011;64007;50.632;13.700;2024-02-28T09:39:08;4.25;;;2.10;;
75426;SDS011;64007;50.632;13.700;2024-02-28T09:41:34;5.60;;;2.88;;
75426;SDS011;64007;50.632;13.700;2024-02-28T09:43:59;4.28;;;2.00;;
75426;SDS011;64007;50.632;13.700;2024-02-28T09:46:28;6.40;;;3.08;;
75426;SDS011;64007;50.632;13.700;2024-02-28T09:48:54;5.40;;;3.40;;
75426;SDS011;64007;50.632;13.700;2024-02-28T09:51:21;5.10;;;3.15;;
75426;SDS011;64007;50.632;13.700;2024-02-28T09:53:49;6.63;;;2.78;;
75426;SDS011;64007;50.632;13.700;2024-02-28T09:56:16;4.13;;;2.13;;
75426;SDS011;64007;50.632;13.700;2024-02-28T09:58:42;12.65;;;2.35;;
75426;SDS011;64007;50.632;13.700;2024-02-28T10:01:09;5.35;;;2.38;;
75426;SDS011;64007;50.632;13.700;2024-02-28T10:03:37;7.03;;;2.50;;
75426;SDS011;64007;50.632;13.700;2024-02-28T10:06:05;4.90;;;2.38;;
75426;SDS011;64007;50.632;13.700;2024-02-28T10:08:31;8.05;;;2.80;;
75426;SDS011;64007;50.632;13.700;2024-02-28T10:10:57;8.38;;;2.75;;
75426;SDS011;64007;50.632;13.700;2024-02-28T10:13:24;5.28;;;2.33;;
75426;SDS011;64007;50.632;13.700;2024-02-28T10:15:50;5.25;;;2.58;;
75426;SDS011;64007;50.632;13.700;2024-02-28T10:18:15;5.35;;;2.58;;
75426;SDS011;64007;50.632;13.700;2024-02-28T10:20:41;5.93;;;3.03;;
75426;SDS011;64007;50.632;13.700;2024-02-28T10:23:07;3.88;;;2.60;;
75426;SDS011;64007;50.632;13.700;2024-02-28T10:25:44;5.35;;;2.95;;
75426;SDS011;64007;50.632;13.700;2024-02-28T10:28:11;4.95;;;2.80;;
75426;SDS011;64007;50.632;13.700;2024-02-28T10:30:39;9.23;;;3.00;;
75426;SDS011;64007;50.632;13.700;2024-02-28T10:33:15;9.07;;;2.97;;
75426;SDS011;64007;50.632;13.700;2024-02-28T10:35:41;5.40;;;3.13;;
75426;SDS011;64007;50.632;13.700;2024-02-28T10:38:11;10.70;;;2.90;;
75426;SDS011;64007;50.632;13.700;2024-02-28T10:40:39;9.65;;;3.40;;
75426;SDS011;64007;50.632;13.700;2024-02-28T10:43:09;6.80;;;3.50;;
75426;SDS011;64007;50.632;13.700;2024-02-28T10:45:39;7.13;;;3.30;;
75426;SDS011;64007;50.632;13.700;2024-02-28T10:48:05;6.85;;;3.13;;
75426;SDS011;64007;50.632;13.700;2024-02-28T10:50:32;10.07;;;3.28;;
75426;SDS011;64007;50.632;13.700;2024-02-28T10:53:01;7.03;;;3.30;;
75426;SDS011;64007;50.632;13.700;2024-02-28T10:55:35;7.45;;;3.88;;
75426;SDS011;64007;50.632;13.700;2024-02-28T10:58:08;10.85;;;3.20;;
75426;SDS011;64007;50.632;13.700;2024-02-28T11:00:36;10.90;;;3.72;;
75426;SDS011;64007;50.632;13.700;2024-02-28T11:03:20;5.80;;;2.90;;
75426;SDS011;64007;50.632;13.700;2024-02-28T11:05:47;11.77;;;3.05;;
75426;SDS011;64007;50.632;13.700;2024-02-28T11:08:22;8.65;;;2.95;;
75426;SDS011;64007;50.632;13.700;2024-02-28T11:10:59;6.85;;;3.47;;
75426;SDS011;64007;50.632;13.700;2024-02-28T11:13:29;9.82;;;3.47;;
75426;SDS011;64007;50.632;13.700;2024-02-28T11:16:06;5.97;;;3.47;;
75426;SDS011;64007;50.632;13.700;2024-02-28T11:18:34;9.68;;;2.83;;
75426;SDS011;64007;50.632;13.700;2024-02-28T11:21:00;4.13;;;2.92;;
75426;SDS011;64007;50.632;13.700;2024-02-28T11:23:34;9.43;;;3.15;;
75426;SDS011;64007;50.632;13.700;2024-02-28T11:26:02;6.57;;;3.00;;
75426;SDS011;64007;50.632;13.700;2024-02-28T11:28:28;5.55;;;3.33;;
75426;SDS011;64007;50.632;13.700;2024-02-28T11:30:54;4.47;;;3.15;;
75426;SDS011;64007;50.632;13.700;2024-02-28T11:33:20;5.38;;;2.78;;
75426;SDS011;64007;50.632;13.700;2024-02-28T11:35:53;3.80;;;2.50;;
75426;SDS011;64007;50.632;13.700;2024-02-28T11:38:21;4.38;;;2.15;;
75426;SDS011;64007;50.632;13.700;2024-02-28T11:40:49;6.00;;;2.67;;
75426;SDS011;64007;50.632;13.700;2024-02-28T11:43:15;5.95;;;2.33;;
75426;SDS011;64007;50.632;13.700;2024-02-28T11:45:41;3.67;;;2.72;;
75426;SDS011;64007;50.632;13.700;2024-02-28T11:48:07;10.18;;;2.50;;
75426;SDS011;64007;50.632;13.700;2024-02-28T11:50:34;4.35;;;2.60;;
75426;SDS011;64007;50.632;13.700;2024-02-28T11:52:59;7.60;;;2.85;;
75426;SDS011;64007;50.632;13.700;2024-02-28T11:55:27;7.85;;;2.75;;
75426;SDS011;64007;50.632;13.700;2024-02-28T11:57:52;9.20;;;3.80;;
75426;SDS011;64007;50.632;13.700;2024-02-28T12:00:18;7.78;;;3.60;;
75426;SDS011;64007;50.632;13.700;2024-02-28T12:02:44;7.18;;;3.05;;
75426;SDS011;64007;50.632;13.700;2024-02-28T12:05:10;4.38;;;2.80;;
75426;SDS011;64007;50.632;13.700;2024-02-28T12:07:35;5.05;;;2.50;;
75426;SDS011;64007;50.632;13.700;2024-02-28T12:10:02;4.57;;;2.80;;
75426;SDS011;64007;50.632;13.700;2024-02-28T12:12:27;6.70;;;3.13;;
75426;SDS011;64007;50.632;13.700;2024-02-28T12:14:57;5.65;;;2.90;;
75426;SDS011;64007;50.632;13.700;2024-02-28T12:17:28;11.90;;;3.05;;
75426;SDS011;64007;50.632;13.700;2024-02-28T12:19:54;5.43;;;2.63;;
75426;SDS011;64007;50.632;13.700;2024-02-28T12:22:20;4.13;;;2.47;;
75426;SDS011;64007;50.632;13.700;2024-02-28T12:24:46;3.47;;;2.30;;
75426;SDS011;64007;50.632;13.700;2024-02-28T12:27:12;3.92;;;2.40;;
75426;SDS011;64007;50.632;13.700;2024-02-28T12:29:38;4.28;;;2.50;;
75426;SDS011;64007;50.632;13.700;2024-02-28T12:32:04;4.30;;;2.20;;
75426;SDS011;64007;50.632;13.700;2024-02-28T12:34:29;4.45;;;2.13;;
75426;SDS011;64007;50.632;13.700;2024-02-28T12:36:55;8.30;;;2.30;;
75426;SDS011;64007;50.632;13.700;2024-02-28T12:39:21;12.93;;;2.22;;
75426;SDS011;64007;50.632;13.700;2024-02-28T12:41:47;3.70;;;2.38;;
75426;SDS011;64007;50.632;13.700;2024-02-28T12:44:14;3.45;;;2.10;;
75426;SDS011;64007;50.632;13.700;2024-02-28T12:46:39;2.53;;;1.67;;
75426;SDS011;64007;50.632;13.700;2024-02-28T12:49:05;2.95;;;2.20;;
75426;SDS011;64007;50.632;13.700;2024-02-28T12:51:43;3.08;;;1.98;;
75426;SDS011;64007;50.632;13.700;2024-02-28T12:54:10;3.33;;;2.00;;
75426;SDS011;64007;50.632;13.700;2024-02-28T12:56:38;8.40;;;2.08;;
75426;SDS011;64007;50.632;13.700;2024-02-28T12:59:04;7.15;;;3.25;;
75426;SDS011;64007;50.632;13.700;2024-02-28T13:01:32;4.65;;;3.00;;
75426;SDS011;64007;50.632;13.700;2024-02-28T13:03:58;3.95;;;2.05;;
75426;SDS011;64007;50.632;13.700;2024-02-28T13:06:24;4.30;;;2.53;;
75426;SDS011;64007;50.632;13.700;2024-02-28T13:08:50;5.30;;;2.60;;
75426;SDS011;64007;50.632;13.700;2024-02-28T13:11:19;6.43;;;2.95;;
75426;SDS011;64007;50.632;13.700;2024-02-28T13:13:46;5.00;;;2.63;;
75426;SDS011;64007;50.632;13.700;2024-02-28T13:16:13;3.97;;;2.45;;
75426;SDS011;64007;50.632;13.700;2024-02-28T13:18:39;5.43;;;2.50;;
75426;SDS011;64007;50.632;13.700;2024-02-28T13:21:04;8.05;;;2.88;;
75426;SDS011;64007;50.632;13.700;2024-02-28T13:23:30;4.78;;;2.88;;
75426;SDS011;64007;50.632;13.700;2024-02-28T13:25:56;3.80;;;2.50;;
75426;SDS011;64007;50.632;13.700;2024-02-28T13:28:22;4.68;;;2.63;;
75426;SDS011;64007;50.632;13.700;2024-02-28T13:30:58;4.50;;;2.70;;
75426;SDS011;64007;50.632;13.700;2024-02-28T13:33:24;3.38;;;2.05;;
75426;SDS011;64007;50.632;13.700;2024-02-28T13:35:51;4.95;;;2.33;;
75426;SDS011;64007;50.632;13.700;2024-02-28T13:38:18;4.93;;;2.38;;
75426;SDS011;64007;50.632;13.700;2024-02-28T13:40:44;4.75;;;2.28;;
75426;SDS011;64007;50.632;13.700;2024-02-28T13:43:11;3.15;;;2.20;;
75426;SDS011;64007;50.632;13.700;2024-02-28T13:45:45;4.22;;;2.58;;
75426;SDS011;64007;50.632;13.700;2024-02-28T13:48:17;8.25;;;3.75;;
75426;SDS011;64007;50.632;13.700;2024-02-28T13:50:46;5.55;;;3.35;;
75426;SDS011;64007;50.632;13.700;2024-02-28T13:53:13;4.88;;;2.70;;
75426;SDS011;64007;50.632;13.700;2024-02-28T13:55:43;5.00;;;2.72;;
75426;SDS011;64007;50.632;13.700;2024-02-28T13:58:13;4.00;;;2.55;;
75426;SDS011;64007;50.632;13.700;2024-02-28T14:00:43;6.25;;;3.40;;
75426;SDS011;64007;50.632;13.700;2024-02-28T14:03:13;6.57;;;3.70;;
75426;SDS011;64007;50.632;13.700;2024-02-28T14:05:40;4.35;;;2.45;;
75426;SDS011;64007;50.632;13.700;2024-02-28T14:08:06;4.85;;;2.92;;
75426;SDS011;64007;50.632;13.700;2024-02-28T14:10:33;4.20;;;2.63;;
75426;SDS011;64007;50.632;13.700;2024-02-28T14:13:00;3.90;;;2.38;;
75426;SDS011;64007;50.632;13.700;2024-02-28T14:15:26;3.45;;;2.58;;
75426;SDS011;64007;50.632;13.700;2024-02-28T14:17:51;5.18;;;2.80;;
75426;SDS011;64007;50.632;13.700;2024-02-28T14:20:17;4.85;;;2.80;;
75426;SDS011;64007;50.632;13.700;2024-02-28T14:22:44;4.95;;;3.40;;
75426;SDS011;64007;50.632;13.700;2024-02-28T14:25:13;5.35;;;3.50;;
75426;SDS011;64007;50.632;13.700;2024-02-28T14:27:40;7.07;;;3.45;;
75426;SDS011;64007;50.632;13.700;2024-02-28T14:30:07;3.33;;;2.17;;
75426;SDS011;64007;50.632;13.700;2024-02-28T14:32:37;5.40;;;3.10;;
75426;SDS011;64007;50.632;13.700;2024-02-28T14:35:06;6.70;;;3.58;;
75426;SDS011;64007;50.632;13.700;2024-02-28T14:37:36;5.47;;;3.03;;
75426;SDS011;64007;50.632;13.700;2024-02-28T14:40:06;6.55;;;4.13;;
75426;SDS011;64007;50.632;13.700;2024-02-28T14:42:39;7.72;;;4.35;;
75426;SDS011;64007;50.632;13.700;2024-02-28T14:45:09;11.48;;;5.88;;
75426;SDS011;64007;50.632;13.700;2024-02-28T14:47:36;7.55;;;4.60;;
75426;SDS011;64007;50.632;13.700;2024-02-28T14:50:02;10.00;;;4.10;;